Terminal Aerodrome Forecast
Issued by NWS

Home | Current Version | Previous Version | Graphics & Text | Print | Product List | Glossary On
Versions: 1 2 3 4 5 6 7 8 9 10 11 12 13 14 15 16 17 18 19 20 21 22
351
FTUS43 KABR 280531
TAFPIR
TAF
KPIR 280531Z 2806/2906 VRB05KT P6SM SCT250
     FM281600 05012G19KT P6SM OVC080
     FM290200 VRB05KT P6SM BKN250=

USA.gov is the U.S. government's official web portal to all federal, state and local government web resources and services.